Time;durP1;ratioP1;P1;durP2;ratioP2;P2;SDS_P1;SDS_P2;PMS_P1;PMS_P2;Temp;Humidity;BMP_temperature;BMP_pressure;BME280_temperature;BME280_humidity;BME280_pressure;Samples;Min_cycle;Max_cycle;Signal;HPM_P1;HPM_P2
2022/10/19 00:01:49;;;;;;;33.23;29.73;;;;;;;14.11;100.00;97666.50;5094457;28;20173;-54
2022/10/19 00:04:14;;;;;;;32.07;28.67;;;;;;;14.14;100.00;97668.69;5094633;28;20624;-56
2022/10/19 00:06:39;;;;;;;34.77;29.70;;;;;;;14.09;100.00;97665.94;5094484;28;20215;-55
2022/10/19 00:09:11;;;;;;;34.80;31.23;;;;;;;14.16;100.00;97664.78;5094132;28;20183;-56
2022/10/19 00:11:40;;;;;;;34.57;31.00;;;;;;;14.23;100.00;97662.03;5094501;28;20264;-56
2022/10/19 00:14:06;;;;;;;37.60;32.63;;;;;;;14.19;100.00;97666.19;5075847;28;20177;-56
2022/10/19 00:16:34;;;;;;;38.10;31.77;;;;;;;14.21;100.00;97672.00;5091303;28;20298;-55
2022/10/19 00:19:02;;;;;;;39.83;33.13;;;;;;;14.01;100.00;97661.78;5091480;28;20212;-58
2022/10/19 00:21:28;;;;;;;36.30;29.60;;;;;;;14.07;100.00;97666.16;5091282;28;20585;-53
2022/10/19 00:23:53;;;;;;;40.37;36.00;;;;;;;13.95;100.00;97664.50;5094234;28;20293;-57
2022/10/19 00:26:19;;;;;;;39.70;35.57;;;;;;;13.88;100.00;97661.16;5093609;28;20556;-54
2022/10/19 00:28:44;;;;;;;40.67;36.33;;;;;;;13.73;100.00;97656.31;5094341;28;20280;-57
2022/10/19 00:31:15;;;;;;;41.37;36.77;;;;;;;13.67;100.00;97655.41;5094096;28;20230;-53
2022/10/19 00:33:41;;;;;;;39.57;32.83;;;;;;;13.85;100.00;97656.38;5093522;28;20191;-54
2022/10/19 00:36:18;;;;;;;38.47;32.73;;;;;;;13.89;100.00;97666.22;5094047;28;20253;-52
2022/10/19 00:38:43;;;;;;;43.47;33.30;;;;;;;13.95;100.00;97662.69;5093783;28;20548;-53
2022/10/19 00:41:09;;;;;;;48.97;32.20;;;;;;;14.03;100.00;97662.38;5093933;28;20172;-53
2022/10/19 00:43:53;;;;;;;49.37;34.20;;;;;;;14.05;100.00;97660.28;5090800;28;20339;-56
2022/10/19 00:46:19;;;;;;;47.53;33.00;;;;;;;14.06;100.00;97658.47;5093860;28;20259;-54
2022/10/19 00:48:44;;;;;;;52.73;28.13;;;;;;;14.05;100.00;97660.28;5093516;28;20671;-55
2022/10/19 00:51:10;;;;;;;52.70;30.27;;;;;;;14.03;100.00;97664.19;5093875;28;20255;-52
2022/10/19 00:53:36;;;;;;;54.67;28.77;;;;;;;14.04;100.00;97663.19;5093570;28;20175;-51
2022/10/19 00:56:06;;;;;;;59.07;31.23;;;;;;;14.03;100.00;97670.28;5093667;28;20283;-57
2022/10/19 00:58:32;;;;;;;62.63;33.20;;;;;;;14.03;100.00;97664.19;5093840;28;20612;-51
2022/10/19 01:01:01;;;;;;;59.37;33.97;;;;;;;13.94;100.00;97668.97;5093446;28;20173;-55
2022/10/19 01:03:27;;;;;;;64.77;31.07;;;;;;;13.90;100.00;97667.03;5075420;28;20192;-55
2022/10/19 01:05:53;;;;;;;59.53;31.20;;;;;;;13.84;100.00;97670.56;5093420;28;20295;-54
2022/10/19 01:08:19;;;;;;;216.17;36.20;;;;;;;13.73;100.00;97670.31;5075300;28;20263;-55
2022/10/19 01:10:58;;;;;;;339.30;41.30;;;;;;;13.73;100.00;97664.22;5093255;28;20204;-53
2022/10/19 01:13:50;;;;;;;276.30;40.40;;;;;;;13.74;100.00;97663.22;5092200;28;20619;-55
2022/10/19 01:16:35;;;;;;;214.63;38.03;;;;;;;13.62;100.00;97665.81;5093047;28;20201;-55
2022/10/19 01:19:01;;;;;;;100.03;31.30;;;;;;;13.65;100.00;97665.34;5092601;28;20617;-53
2022/10/19 01:22:07;;;;;;;467.63;38.70;;;;;;;13.64;100.00;97662.97;5092864;28;20255;-56
2022/10/19 01:25:05;;;;;;;215.50;31.37;;;;;;;13.78;100.00;97655.66;5042627;28;20195;-56
2022/10/19 01:27:54;;;;;;;311.83;35.27;;;;;;;13.74;100.00;97653.47;5048938;28;20321;-56
2022/10/19 01:30:48;;;;;;;148.30;32.17;;;;;;;13.65;100.00;97654.81;5092888;28;20675;-56
2022/10/19 01:33:49;;;;;;;302.47;39.97;;;;;;;13.64;100.00;97650.59;5077742;28;20540;-54
2022/10/19 01:36:47;;;;;;;122.50;34.90;;;;;;;13.73;100.00;97648.44;5051326;28;20311;-52
2022/10/19 01:39:38;;;;;;;310.83;37.50;;;;;;;13.75;100.00;97646.38;5086126;28;20180;-55
2022/10/19 01:42:21;;;;;;;61.30;32.10;;;;;;;13.69;100.00;97642.81;5081997;28;20244;-56
2022/10/19 01:45:10;;;;;;;264.87;34.43;;;;;;;13.81;100.00;97632.31;5091706;28;20256;-56
2022/10/19 01:47:47;;;;;;;102.83;34.47;;;;;;;13.70;100.00;97640.97;5092706;28;20200;-57
2022/10/19 01:50:24;;;;;;;150.00;33.53;;;;;;;13.70;100.00;97635.72;5092860;28;20176;-51
2022/10/19 01:52:51;;;;;;;157.80;33.90;;;;;;;13.78;100.00;97635.38;5090281;28;20172;-53
2022/10/19 01:55:18;;;;;;;313.80;40.70;;;;;;;13.89;100.00;97625.88;5092698;28;20191;-53
2022/10/19 01:57:49;;;;;;;101.07;38.10;;;;;;;13.92;100.00;97626.25;5092073;28;20533;-56
2022/10/19 02:00:16;;;;;;;293.67;43.73;;;;;;;13.93;100.00;97625.19;5091479;28;20191;-56
2022/10/19 02:02:45;;;;;;;247.50;41.87;;;;;;;14.01;100.00;97635.44;5092578;28;20192;-57
2022/10/19 02:05:12;;;;;;;115.77;36.00;;;;;;;14.00;100.00;97623.28;5092637;28;20622;-54
2022/10/19 02:07:40;;;;;;;270.37;37.37;;;;;;;13.96;100.00;97623.97;5089996;28;20227;-54
2022/10/19 02:10:07;;;;;;;231.30;42.10;;;;;;;13.97;100.00;97621.09;5091384;28;20686;-57
2022/10/19 02:12:32;;;;;;;91.73;33.80;;;;;;;13.90;100.00;97628.31;5091612;28;20199;-56
2022/10/19 02:15:08;;;;;;;140.20;35.40;;;;;;;13.82;100.00;97630.47;5091677;28;20184;-54
2022/10/19 02:17:40;;;;;;;91.97;33.43;;;;;;;13.74;100.00;97629.75;5091739;28;20262;-56
2022/10/19 02:20:06;;;;;;;96.00;33.23;;;;;;;13.91;100.00;97629.09;5091605;28;20195;-55
2022/10/19 02:22:31;;;;;;;170.07;29.73;;;;;;;13.83;100.00;97627.59;5092134;28;20200;-55
2022/10/19 02:24:57;;;;;;;97.47;31.53;;;;;;;13.77;100.00;97617.94;5092505;28;20187;-56
2022/10/19 02:27:23;;;;;;;146.63;31.07;;;;;;;13.76;100.00;97621.66;5092287;28;20204;-56
2022/10/19 02:29:48;;;;;;;183.93;34.30;;;;;;;13.66;100.00;97614.25;5091679;28;20184;-54
2022/10/19 02:32:14;;;;;;;152.83;32.90;;;;;;;13.60;100.00;97609.09;5091917;28;20294;-56
2022/10/19 02:34:40;;;;;;;178.00;36.77;;;;;;;13.72;100.00;97612.56;5092466;28;20265;-57
2022/10/19 02:37:06;;;;;;;148.53;34.63;;;;;;;13.86;100.00;97605.28;5092196;28;20272;-57
2022/10/19 02:39:32;;;;;;;95.93;33.10;;;;;;;13.95;100.00;97606.53;5092071;28;20644;-57
2022/10/19 02:42:06;;;;;;;110.80;32.37;;;;;;;13.96;100.00;97606.31;5089864;28;20247;-57
2022/10/19 02:44:41;;;;;;;99.10;34.37;;;;;;;14.01;100.00;97606.44;5091477;28;20173;-57
2022/10/19 02:47:16;;;;;;;106.67;38.97;;;;;;;14.00;100.00;97604.81;5092037;28;20668;-57
2022/10/19 02:49:42;;;;;;;71.30;35.17;;;;;;;13.94;100.00;97611.00;5078508;28;20688;-57
2022/10/19 02:52:10;;;;;;;79.23;41.10;;;;;;;14.03;100.00;97601.75;5096014;28;20164;-57
2022/10/19 02:54:36;;;;;;;96.57;34.97;;;;;;;13.99;100.00;97597.94;5095994;28;20641;-52
2022/10/19 02:57:07;;;;;;;80.20;38.87;;;;;;;14.02;100.00;97600.13;5096035;28;20204;-54
2022/10/19 02:59:32;;;;;;;112.10;35.80;;;;;;;14.12;100.00;97595.09;5095934;28;20180;-55
2022/10/19 03:01:57;;;;;;;85.10;38.10;;;;;;;14.09;100.00;97592.13;5095834;28;20185;-53
2022/10/19 03:04:23;;;;;;;115.37;34.27;;;;;;;14.19;100.00;97587.06;5095523;28;20168;-53
2022/10/19 03:06:48;;;;;;;81.30;30.50;;;;;;;14.19;100.00;97594.97;5095624;28;20205;-58
2022/10/19 03:09:14;;;;;;;65.03;34.57;;;;;;;14.10;100.00;97588.44;5095848;28;20177;-54
2022/10/19 03:11:39;;;;;;;73.70;34.50;;;;;;;14.13;100.00;97593.25;5095960;28;20177;-55
2022/10/19 03:14:04;;;;;;;77.33;33.70;;;;;;;14.05;100.00;97586.47;5095097;28;20202;-56
2022/10/19 03:16:30;;;;;;;93.30;32.50;;;;;;;14.21;100.00;97582.34;5095811;28;20200;-57
2022/10/19 03:18:55;;;;;;;62.90;33.73;;;;;;;14.02;100.00;97579.03;5095146;28;20200;-56
2022/10/19 03:21:21;;;;;;;66.67;34.43;;;;;;;13.95;100.00;97580.19;5095632;28;20316;-58
2022/10/19 03:23:46;;;;;;;63.87;34.07;;;;;;;14.14;100.00;97576.41;5095259;28;20273;-52
2022/10/19 03:26:14;;;;;;;58.63;34.43;;;;;;;14.07;100.00;97581.78;5095544;28;20208;-53
2022/10/19 03:28:39;;;;;;;57.57;35.00;;;;;;;14.20;100.00;97579.97;5095303;28;20169;-54
2022/10/19 03:31:05;;;;;;;60.80;40.33;;;;;;;14.19;100.00;97578.34;5095532;28;20227;-56
2022/10/19 03:33:30;;;;;;;50.40;36.13;;;;;;;14.13;100.00;97574.81;5094701;28;20180;-59
2022/10/19 03:36:18;;;;;;;45.83;36.03;;;;;;;14.16;100.00;97582.25;5094776;28;20211;-55
2022/10/19 03:38:43;;;;;;;43.67;37.33;;;;;;;14.07;100.00;97573.88;5095548;28;20180;-53
2022/10/19 03:41:09;;;;;;;42.53;37.90;;;;;;;13.95;100.00;97580.19;5095086;28;20192;-54
2022/10/19 03:43:35;;;;;;;40.13;32.93;;;;;;;13.99;100.00;97581.31;5091184;28;20267;-58
2022/10/19 03:46:00;;;;;;;38.90;31.97;;;;;;;14.03;100.00;97578.03;5094969;28;20228;-56
2022/10/19 03:48:26;;;;;;;35.83;31.40;;;;;;;14.10;100.00;97576.06;5095392;28;20207;-58
2022/10/19 03:51:05;;;;;;;36.60;32.67;;;;;;;14.25;100.00;97570.34;5095338;28;20543;-57
2022/10/19 03:53:30;;;;;;;33.50;29.90;;;;;;;14.25;100.00;97574.81;5095062;28;20252;-58
2022/10/19 03:56:04;;;;;;;30.67;26.23;;;;;;;14.31;100.00;97577.34;5094863;28;20728;-54
2022/10/19 03:58:32;;;;;;;31.33;26.17;;;;;;;14.22;100.00;97572.59;5095301;28;20636;-51
2022/10/19 04:00:57;;;;;;;27.30;23.97;;;;;;;14.15;100.00;97573.53;5093819;28;20567;-56
2022/10/19 04:03:23;;;;;;;27.37;24.40;;;;;;;14.09;100.00;97571.03;5094919;28;20201;-57
2022/10/19 04:05:48;;;;;;;26.37;23.13;;;;;;;14.25;100.00;97574.81;5094433;28;20191;-55
2022/10/19 04:08:14;;;;;;;29.00;23.83;;;;;;;14.02;100.00;97578.25;5094578;28;20180;-57
2022/10/19 04:10:39;;;;;;;26.67;23.83;;;;;;;13.93;100.00;97572.50;5094896;28;20172;-56
2022/10/19 04:13:05;;;;;;;28.27;24.63;;;;;;;14.09;100.00;97571.03;5094736;28;20705;-57
2022/10/19 04:15:30;;;;;;;28.27;25.23;;;;;;;14.03;100.00;97577.22;5094639;28;20264;-56
2022/10/19 04:17:55;;;;;;;31.43;26.37;;;;;;;14.10;100.00;97576.06;5092427;28;20200;-53
2022/10/19 04:20:21;;;;;;;34.97;27.53;;;;;;;14.12;100.00;97568.72;5094659;28;20193;-54
2022/10/19 04:22:46;;;;;;;35.30;28.33;;;;;;;14.15;100.00;97564.84;5094594;28;20253;-53
2022/10/19 04:25:12;;;;;;;34.77;28.33;;;;;;;14.00;100.00;97560.00;5094076;28;20165;-53
2022/10/19 04:27:37;;;;;;;35.40;28.93;;;;;;;13.92;100.00;97562.19;5093920;28;20215;-53
2022/10/19 04:30:03;;;;;;;38.63;31.57;;;;;;;14.03;100.00;97558.75;5093565;28;20226;-54
2022/10/19 04:32:28;;;;;;;33.93;28.40;;;;;;;13.96;100.00;97565.97;5094363;28;20177;-54
2022/10/19 04:34:54;;;;;;;36.70;29.90;;;;;;;13.82;100.00;97559.34;5094041;28;20196;-54
2022/10/19 04:37:19;;;;;;;34.70;28.43;;;;;;;13.39;100.00;97567.47;5093793;28;20208;-55
2022/10/19 04:39:45;;;;;;;40.73;29.90;;;;;;;13.24;100.00;97568.69;5094127;28;20181;-54
2022/10/19 04:42:10;;;;;;;32.73;27.90;;;;;;;13.51;100.00;97574.38;5091681;28;20251;-57
2022/10/19 04:44:35;;;;;;;34.63;26.30;;;;;;;13.61;100.00;97568.56;5093388;28;20183;-57
2022/10/19 04:47:01;;;;;;;36.30;27.93;;;;;;;13.72;100.00;97571.22;5093851;28;20212;-56
2022/10/19 04:49:26;;;;;;;35.60;28.90;;;;;;;13.74;100.00;97569.16;5092404;28;20173;-53
2022/10/19 04:51:51;;;;;;;31.63;25.90;;;;;;;13.83;100.00;97566.97;5093536;28;20173;-56
2022/10/19 04:54:17;;;;;;;35.40;27.80;;;;;;;13.91;100.00;97571.94;5093569;28;20230;-58
2022/10/19 04:56:42;;;;;;;37.17;25.83;;;;;;;13.84;100.00;97557.25;5093639;28;20203;-54
2022/10/19 04:59:08;;;;;;;33.53;27.63;;;;;;;13.81;100.00;97557.72;5093896;28;20640;-52
2022/10/19 05:01:34;;;;;;;46.33;27.20;;;;;;;13.53;100.00;97568.91;5093591;28;20190;-50
2022/10/19 05:04:01;;;;;;;64.47;28.87;;;;;;;13.16;100.00;97562.94;5093425;28;20218;-56
2022/10/19 05:06:27;;;;;;;47.67;30.03;;;;;;;13.23;100.00;97567.09;5093195;28;20213;-50
2022/10/19 05:08:53;;;;;;;39.10;26.30;;;;;;;13.39;100.00;97567.47;5093685;28;20571;-53
2022/10/19 05:11:19;;;;;;;37.43;26.90;;;;;;;13.52;100.00;97567.28;5092813;28;20196;-53
2022/10/19 05:13:45;;;;;;;36.77;27.73;;;;;;;13.48;100.00;97564.31;5092616;28;20225;-54
2022/10/19 05:16:14;;;;;;;37.83;27.77;;;;;;;13.59;100.00;97570.63;5093343;28;20204;-55
2022/10/19 05:18:39;;;;;;;89.20;26.80;;;;;;;13.30;100.00;97575.69;5092459;28;20192;-55
2022/10/19 05:21:10;;;;;;;48.10;26.70;;;;;;;13.49;100.00;97576.44;5093265;28;20229;-56
2022/10/19 05:23:36;;;;;;;55.07;29.13;;;;;;;13.34;100.00;97562.88;5091422;28;20705;-56
2022/10/19 05:26:07;;;;;;;60.20;27.37;;;;;;;13.62;100.00;97570.16;5093150;28;20219;-55
2022/10/19 05:28:34;;;;;;;70.90;26.83;;;;;;;13.54;100.00;97568.66;5093156;28;20211;-56
2022/10/19 05:31:12;;;;;;;111.70;27.23;;;;;;;13.08;100.00;97563.22;5092923;28;20172;-53
2022/10/19 05:33:38;;;;;;;66.00;24.97;;;;;;;13.06;100.00;97566.06;5092909;28;20176;-55
2022/10/19 05:36:16;;;;;;;44.33;27.50;;;;;;;13.13;100.00;97566.03;5091389;28;20196;-52
2022/10/19 05:38:42;;;;;;;71.97;25.77;;;;;;;12.88;100.00;97566.91;5093240;28;20184;-52
2022/10/19 05:41:08;;;;;;;55.37;25.43;;;;;;;12.92;100.00;97559.38;5092558;28;20214;-54
2022/10/19 05:43:33;;;;;;;84.60;27.70;;;;;;;12.89;100.00;97570.34;5089865;28;20274;-52
2022/10/19 05:46:04;;;;;;;34.43;28.23;;;;;;;12.96;100.00;97563.16;5092883;28;20309;-56
2022/10/19 05:48:32;;;;;;;32.00;28.03;;;;;;;13.08;100.00;97564.03;5093352;28;20544;-57
2022/10/19 05:50:58;;;;;;;32.00;28.33;;;;;;;13.19;100.00;97565.13;5083626;28;20260;-54
2022/10/19 05:53:24;;;;;;;36.80;26.83;;;;;;;13.28;100.00;97555.88;5091465;28;20250;-54
2022/10/19 05:55:49;;;;;;;40.27;28.03;;;;;;;13.38;100.00;97561.41;5092314;28;20998;-56
2022/10/19 05:58:15;;;;;;;31.97;28.70;;;;;;;13.30;100.00;97559.91;5092102;28;20687;-58
2022/10/19 06:00:40;;;;;;;30.17;26.47;;;;;;;13.30;100.00;97569.63;5092556;28;20183;-57
2022/10/19 06:03:05;;;;;;;32.97;25.13;;;;;;;13.44;100.00;97564.97;5092673;28;20242;-56
2022/10/19 06:05:31;;;;;;;27.03;22.17;;;;;;;13.49;100.00;97565.09;5092487;28;20185;-55
2022/10/19 06:07:56;;;;;;;27.07;24.23;;;;;;;13.39;100.00;97572.72;5092529;28;20204;-53
2022/10/19 06:10:22;;;;;;;27.43;24.73;;;;;;;13.56;100.00;97576.34;5092605;28;20177;-55
2022/10/19 06:12:48;;;;;;;26.97;22.80;;;;;;;13.54;100.00;97568.66;5091916;28;20176;-58
2022/10/19 06:15:13;;;;;;;25.53;23.00;;;;;;;13.45;100.00;97570.00;5092413;28;20218;-56
2022/10/19 06:17:39;;;;;;;28.40;25.57;;;;;;;13.76;100.00;97579.47;5091464;28;20209;-56
2022/10/19 06:20:05;;;;;;;28.43;25.97;;;;;;;13.79;100.00;97578.22;5091421;28;20176;-58
2022/10/19 06:22:30;;;;;;;26.93;24.50;;;;;;;13.84;100.00;97575.69;5092610;28;20566;-53
2022/10/19 06:24:56;;;;;;;26.77;24.40;;;;;;;13.67;100.00;97570.28;5094767;28;20624;-55
2022/10/19 06:27:21;;;;;;;27.83;22.17;;;;;;;13.73;100.00;97577.28;5096459;28;20208;-57
2022/10/19 06:29:47;;;;;;;24.57;22.27;;;;;;;13.68;100.00;97572.69;5096148;28;20219;-52
2022/10/19 06:32:12;;;;;;;24.30;21.97;;;;;;;13.55;100.00;97580.78;5096511;28;20188;-55
2022/10/19 06:34:38;;;;;;;21.97;19.87;;;;;;;13.91;100.00;97585.09;5096503;28;20184;-57
2022/10/19 06:37:03;;;;;;;28.07;25.40;;;;;;;13.98;100.00;97582.38;5096529;28;20630;-53
2022/10/19 06:39:29;;;;;;;30.73;28.00;;;;;;;14.03;100.00;97588.56;5096204;28;20210;-58
2022/10/19 06:41:54;;;;;;;30.20;27.80;;;;;;;13.95;100.00;97578.34;5093535;28;20248;-52
2022/10/19 06:44:19;;;;;;;34.50;31.70;;;;;;;14.08;100.00;97590.50;5095589;28;20249;-54
2022/10/19 06:46:45;;;;;;;42.23;39.07;;;;;;;13.87;100.00;97593.69;5096083;28;20192;-54
2022/10/19 06:49:12;;;;;;;32.80;30.30;;;;;;;14.03;100.00;97588.56;5095606;28;20176;-54
2022/10/19 06:51:37;;;;;;;23.43;21.07;;;;;;;14.09;100.00;97595.56;5095878;28;20185;-56
2022/10/19 06:54:02;;;;;;;21.10;19.30;;;;;;;14.14;100.00;97592.22;5096046;28;20173;-55
2022/10/19 06:56:28;;;;;;;20.50;18.73;;;;;;;13.98;100.00;97592.91;5096359;28;20212;-54
2022/10/19 06:58:54;;;;;;;20.43;18.70;;;;;;;14.03;100.00;97599.09;5096247;28;20173;-58
2022/10/19 07:01:20;;;;;;;21.40;19.60;;;;;;;14.15;100.00;97597.25;5096102;28;20207;-54
2022/10/19 07:03:45;;;;;;;21.67;19.50;;;;;;;14.08;100.00;97593.16;5095528;28;20205;-55
2022/10/19 07:06:12;;;;;;;27.73;25.40;;;;;;;14.39;100.00;97597.28;5095641;28;20283;-55
2022/10/19 07:08:39;;;;;;;35.40;32.37;;;;;;;14.37;100.00;97596.72;5096170;28;20183;-57
2022/10/19 07:11:08;;;;;;;30.83;28.03;;;;;;;14.41;100.00;97596.03;5095918;28;20299;-51
2022/10/19 07:13:34;;;;;;;34.67;32.03;;;;;;;14.25;100.00;97599.34;5095287;28;20264;-55
2022/10/19 07:16:04;;;;;;;32.97;30.40;;;;;;;14.21;100.00;97600.81;5095409;28;20196;-55
2022/10/19 07:18:29;;;;;;;24.30;22.23;;;;;;;14.35;100.00;97598.75;5094956;28;20184;-57
2022/10/19 07:20:56;;;;;;;23.33;21.30;;;;;;;14.32;100.00;97601.88;5095317;28;20184;-57
2022/10/19 07:23:22;;;;;;;19.60;17.80;;;;;;;14.22;100.00;97596.34;5095742;28;20240;-56
2022/10/19 07:25:48;;;;;;;17.13;15.53;;;;;;;14.42;100.00;97594.22;5095289;28;20169;-56
2022/10/19 07:28:13;;;;;;;18.47;16.50;;;;;;;14.51;100.00;97600.72;5095355;28;20171;-56
2022/10/19 07:30:39;;;;;;;19.13;17.17;;;;;;;14.53;100.00;97599.47;5085979;28;20267;-56
2022/10/19 07:33:05;;;;;;;25.17;16.97;;;;;;;14.63;100.00;97596.25;5095436;28;20535;-55
2022/10/19 07:35:31;;;;;;;17.20;15.60;;;;;;;14.49;100.00;97598.31;5094530;28;20189;-57
2022/10/19 07:37:56;;;;;;;17.40;15.60;;;;;;;14.53;100.00;97596.03;5094580;28;20261;-55
2022/10/19 07:40:21;;;;;;;18.30;16.50;;;;;;;14.57;100.00;97595.34;5095251;28;20551;-57
2022/10/19 07:42:47;;;;;;;17.07;15.47;;;;;;;14.54;100.00;97592.38;5093107;28;20558;-58
2022/10/19 07:45:12;;;;;;;18.40;16.80;;;;;;;14.46;100.00;97598.78;5094790;28;20176;-55
2022/10/19 07:47:38;;;;;;;16.60;14.73;;;;;;;14.22;100.00;97594.50;5094571;28;20633;-54
2022/10/19 07:50:04;;;;;;;16.60;14.43;;;;;;;14.02;100.00;97600.13;5095350;28;20177;-58
2022/10/19 07:52:34;;;;;;;18.47;16.53;;;;;;;14.02;100.00;97599.31;5094874;28;20177;-57
2022/10/19 07:55:00;;;;;;;23.27;21.27;;;;;;;13.90;100.00;97594.03;5094779;28;20172;-56
2022/10/19 07:57:26;;;;;;;23.20;21.27;;;;;;;14.30;100.00;97601.28;5094604;28;20218;-56
2022/10/19 07:59:51;;;;;;;20.27;18.27;;;;;;;14.45;100.00;97597.19;5094912;28;20590;-54
2022/10/19 08:02:17;;;;;;;19.93;18.13;;;;;;;14.55;100.00;97594.75;5094535;28;20185;-54
2022/10/19 08:04:43;;;;;;;15.70;14.10;;;;;;;14.59;100.00;97591.66;5094597;28;20184;-55
2022/10/19 08:07:09;;;;;;;16.23;14.63;;;;;;;14.65;100.00;97602.09;5090094;28;20292;-54
2022/10/19 08:09:34;;;;;;;16.90;15.20;;;;;;;14.83;100.00;97599.28;5078850;28;20244;-57
2022/10/19 08:12:00;;;;;;;20.50;18.70;;;;;;;14.86;100.00;97598.84;5094266;28;20268;-56
2022/10/19 08:14:25;;;;;;;22.50;20.50;;;;;;;15.10;100.00;97596.13;5094796;28;20616;-56
2022/10/19 08:16:51;;;;;;;20.87;18.97;;;;;;;15.12;100.00;97601.97;5094193;28;20736;-60
2022/10/19 08:19:17;;;;;;;21.27;19.43;;;;;;;15.10;100.00;97602.19;5087529;28;20189;-59
2022/10/19 08:21:44;;;;;;;45.33;42.37;;;;;;;14.89;100.00;97598.34;5079576;28;20570;-61
2022/10/19 08:24:12;;;;;;;44.07;40.80;;;;;;;15.24;100.00;97592.97;5094120;28;20212;-53
2022/10/19 08:26:39;;;;;;;52.23;48.63;;;;;;;15.04;100.00;97602.34;5094164;28;20197;-58
2022/10/19 08:29:15;;;;;;;40.37;37.27;;;;;;;14.73;100.00;97599.09;5093596;28;20188;-58
2022/10/19 08:31:42;;;;;;;41.37;38.37;;;;;;;14.91;100.00;97596.28;5094088;28;20168;-53
2022/10/19 08:34:08;;;;;;;63.27;59.23;;;;;;;14.44;100.00;97600.03;5094024;28;20637;-51
2022/10/19 08:36:34;;;;;;;22.87;21.10;;;;;;;14.32;100.00;97596.59;5093936;28;20239;-55
2022/10/19 08:39:04;;;;;;;19.47;17.53;;;;;;;14.22;100.00;97591.06;5093942;28;20266;-52
2022/10/19 08:44:27;;;;;;;17.20;15.47;;;;;;;14.07;100.00;97588.91;5090837;28;20236;-57
2022/10/19 08:47:11;;;;;;;17.83;16.10;;;;;;;14.33;100.00;97591.06;5091964;28;20208;-52
2022/10/19 08:49:37;;;;;;;16.50;14.90;;;;;;;14.43;100.00;97598.44;5093761;28;20183;-57
2022/10/19 08:52:14;;;;;;;18.40;16.07;;;;;;;14.43;100.00;97609.00;5093559;28;20180;-54
2022/10/19 08:54:53;;;;;;;21.90;19.80;;;;;;;14.62;100.00;97599.09;5093650;28;20196;-54
2022/10/19 08:57:21;;;;;;;34.93;32.27;;;;;;;14.86;100.00;97593.56;5075429;28;20211;-57
2022/10/19 09:00:02;;;;;;;45.77;42.63;;;;;;;15.01;100.00;97606.25;5093343;28;20177;-58
2022/10/19 09:02:41;;;;;;;57.67;53.97;;;;;;;14.73;100.00;97595.63;5093413;28;20229;-54
2022/10/19 09:05:23;;;;;;;46.40;43.50;;;;;;;14.52;100.00;97597.88;5077492;28;20211;-55
2022/10/19 09:07:52;;;;;;;23.70;21.87;;;;;;;14.11;100.00;97592.69;5093239;28;20204;-58
2022/10/19 09:10:23;;;;;;;20.70;19.10;;;;;;;14.12;100.00;97595.09;5085927;28;20284;-60
2022/10/19 09:13:07;;;;;;;15.40;14.20;;;;;;;14.39;100.00;97599.94;5091777;28;20173;-56
2022/10/19 09:15:45;;;;;;;19.80;18.30;;;;;;;14.67;100.00;97584.19;5093189;28;20641;-59
2022/10/19 09:18:15;;;;;;;23.10;21.43;;;;;;;14.36;100.00;97587.19;5092341;28;20191;-59
2022/10/19 09:20:45;;;;;;;48.20;45.10;;;;;;;14.64;100.00;97583.84;5076366;28;20178;-59
2022/10/19 09:23:32;;;;;;;53.63;50.27;;;;;;;14.73;100.00;97582.44;5073460;28;20224;-58
2022/10/19 09:25:58;;;;;;;57.53;53.93;;;;;;;14.63;100.00;97577.78;5087437;28;20250;-58
2022/10/19 09:28:53;;;;;;;58.50;54.87;;;;;;;14.74;100.00;97579.59;5093064;28;20180;-58
2022/10/19 09:31:27;;;;;;;61.53;57.80;;;;;;;14.73;100.00;97572.69;5084808;28;20672;-59
2022/10/19 09:33:58;;;;;;;47.23;44.33;;;;;;;14.22;100.00;97586.59;5092860;28;20200;-57
2022/10/19 09:36:34;;;;;;;74.60;70.23;;;;;;;14.29;100.00;97584.66;5092664;28;20567;-56
2022/10/19 09:38:59;;;;;;;86.33;80.83;;;;;;;14.81;100.00;97577.63;5093057;28;20210;-57
2022/10/19 09:41:25;;;;;;;55.00;51.70;;;;;;;14.67;100.00;97581.53;5083016;28;20185;-56
2022/10/19 09:43:53;;;;;;;39.00;36.43;;;;;;;15.05;100.00;97580.16;5064820;28;20248;-58
2022/10/19 09:46:50;;;;;;;22.20;20.60;;;;;;;14.92;100.00;97581.25;5065225;28;20255;-59
2022/10/19 09:49:17;;;;;;;29.27;27.37;;;;;;;15.12;100.00;97589.56;5059479;28;20169;-59
2022/10/19 09:51:51;;;;;;;18.07;16.67;;;;;;;14.53;100.00;97585.47;5069137;28;20264;-59
2022/10/19 09:54:43;;;;;;;22.80;21.03;;;;;;;14.82;100.00;97578.44;5071352;28;20256;-57
2022/10/19 09:57:19;;;;;;;23.73;22.33;;;;;;;14.82;100.00;97584.47;5049651;28;20213;-57
2022/10/19 09:59:53;;;;;;;18.37;17.10;;;;;;;14.95;100.00;97584.22;5071424;28;20200;-58
2022/10/19 10:02:21;;;;;;;33.30;31.40;;;;;;;15.04;100.00;97582.03;5071975;28;20180;-57
2022/10/19 10:05:05;;;;;;;30.73;28.93;;;;;;;15.19;100.00;97576.22;5072095;28;20249;-54
2022/10/19 10:07:37;;;;;;;26.03;24.37;;;;;;;14.61;100.00;97577.19;5071746;28;20205;-58
2022/10/19 10:10:18;;;;;;;32.63;30.63;;;;;;;14.43;100.00;97586.03;5072010;28;20181;-52
2022/10/19 10:12:45;;;;;;;15.93;14.93;;;;;;;14.31;100.00;97582.59;5069152;28;20268;-57
2022/10/19 10:15:18;;;;;;;15.50;14.30;;;;;;;14.48;100.00;97569.53;5071041;28;20212;-53
2022/10/19 10:17:46;;;;;;;30.37;28.57;;;;;;;14.72;100.00;97571.09;5049796;28;20204;-57
2022/10/19 10:20:31;;;;;;;32.23;30.33;;;;;;;14.98;100.00;97567.94;5055852;28;20173;-58
2022/10/19 10:23:00;;;;;;;23.40;22.00;;;;;;;14.70;100.00;97578.44;5072063;28;20205;-54
2022/10/19 10:25:30;;;;;;;28.27;26.47;;;;;;;14.59;100.00;97576.63;5071991;28;20618;-59
2022/10/19 10:28:02;;;;;;;16.67;15.33;;;;;;;14.94;100.00;97573.88;5071758;28;20224;-59
2022/10/19 10:30:33;;;;;;;22.73;21.33;;;;;;;15.22;100.00;97571.25;5072091;28;20272;-57
2022/10/19 10:33:00;;;;;;;23.23;21.70;;;;;;;15.02;100.00;97573.53;5060837;28;20192;-62
2022/10/19 10:35:32;;;;;;;20.37;19.10;;;;;;;14.99;100.00;97572.16;5066154;28;20264;-56
2022/10/19 10:38:17;;;;;;;14.73;13.80;;;;;;;15.14;100.00;97565.56;5071748;28;20296;-59
2022/10/19 10:41:22;;;;;;;13.70;12.80;;;;;;;15.19;100.00;97557.75;5059137;28;20188;-58
2022/10/19 10:43:53;;;;;;;14.53;13.63;;;;;;;15.48;100.00;97555.88;5077990;28;20236;-57
2022/10/19 10:46:23;;;;;;;14.13;13.30;;;;;;;15.75;100.00;97557.69;5065974;28;20228;-58
2022/10/19 10:48:57;;;;;;;8.97;8.27;;;;;;;15.83;100.00;97558.34;5084898;28;20347;-57
2022/10/19 10:51:36;;;;;;;15.93;14.83;;;;;;;16.12;100.00;97550.03;5086630;28;20172;-58
2022/10/19 10:54:16;;;;;;;14.17;13.37;;;;;;;16.21;100.00;97551.25;5089092;28;20189;-58
2022/10/19 10:56:44;;;;;;;11.65;10.95;;;;;;;16.11;100.00;97544.97;5091419;28;20196;-58
2022/10/19 10:59:27;;;;;;;13.65;12.43;;;;;;;15.43;100.00;97540.75;5092173;28;20644;-61
2022/10/19 11:02:00;;;;;;;38.13;35.97;;;;;;;15.97;100.00;97536.59;5091652;28;20168;-58
2022/10/19 11:04:32;;;;;;;20.73;19.43;;;;;;;15.96;100.00;97540.28;5073227;28;20888;-53
2022/10/19 11:07:17;;;;;;;12.60;11.30;;;;;;;17.13;100.00;97533.84;5091918;28;20215;-62
2022/10/19 11:09:50;;;;;;;14.40;13.50;;;;;;;17.12;100.00;97533.03;5092165;28;20179;-59
2022/10/19 11:12:22;;;;;;;67.72;64.10;;;;;;;16.24;100.00;97539.38;5095714;28;20211;-57
2022/10/19 11:15:17;;;;;;;105.45;99.88;;;;;;;16.15;100.00;97540.84;5095163;28;20229;-59
2022/10/19 11:18:08;;;;;;;117.93;111.63;;;;;;;15.81;100.00;97537.41;5040995;28;20294;-58
2022/10/19 11:20:40;;;;;;;21.27;19.90;;;;;;;15.49;100.00;97526.56;5077173;28;20172;-58
2022/10/19 11:23:25;;;;;;;17.37;15.87;;;;;;;15.41;100.00;97516.41;5095458;28;20238;-57
2022/10/19 11:26:05;;;;;;;14.60;13.70;;;;;;;15.70;100.00;97510.03;5094701;28;20679;-57